sensor_id;sensor_type;location;lat;lon;timestamp;pressure;altitude;pressure_sealevel;temperature;humidity
29467;BME280;60968;37.490;-122.288;2023-08-12T00:02:46;98643.97;;;19.49;78.24
29467;BME280;60968;37.490;-122.288;2023-08-12T00:05:47;98639.47;;;19.51;77.35
29467;BME280;60968;37.490;-122.288;2023-08-12T00:08:47;98639.50;;;19.65;76.59
29467;BME280;60968;37.490;-122.288;2023-08-12T00:11:48;98637.72;;;19.66;77.20
29467;BME280;60968;37.490;-122.288;2023-08-12T00:14:49;98631.22;;;19.71;76.49
29467;BME280;60968;37.490;-122.288;2023-08-12T00:17:50;98627.91;;;19.84;76.20
29467;BME280;60968;37.490;-122.288;2023-08-12T00:20:51;98635.50;;;19.90;75.58
29467;BME280;60968;37.490;-122.288;2023-08-12T00:23:52;98633.00;;;19.87;76.14
29467;BME280;60968;37.490;-122.288;2023-08-12T00:26:52;98629.03;;;20.10;73.38
29467;BME280;60968;37.490;-122.288;2023-08-12T00:29:53;98633.09;;;20.16;72.13
29467;BME280;60968;37.490;-122.288;2023-08-12T00:32:54;98632.75;;;19.92;74.31
29467;BME280;60968;37.490;-122.288;2023-08-12T00:35:55;98642.06;;;19.83;75.08
29467;BME280;60968;37.490;-122.288;2023-08-12T00:38:56;98635.38;;;20.22;70.97
29467;BME280;60968;37.490;-122.288;2023-08-12T00:41:57;98621.59;;;20.31;70.78
29467;BME280;60968;37.490;-122.288;2023-08-12T00:44:58;98625.97;;;20.02;73.54
29467;BME280;60968;37.490;-122.288;2023-08-12T00:47:58;98624.16;;;19.88;73.28
29467;BME280;60968;37.490;-122.288;2023-08-12T00:50:59;98631.16;;;20.34;70.11
29467;BME280;60968;37.490;-122.288;2023-08-12T00:54:03;98639.94;;;20.04;72.67
29467;BME280;60968;37.490;-122.288;2023-08-12T00:57:06;98637.47;;;19.70;75.38
29467;BME280;60968;37.490;-122.288;2023-08-12T01:00:08;98635.84;;;19.52;76.47
29467;BME280;60968;37.490;-122.288;2023-08-12T01:03:09;98636.81;;;19.35;77.58
29467;BME280;60968;37.490;-122.288;2023-08-12T01:06:10;98624.06;;;19.11;79.98
29467;BME280;60968;37.490;-122.288;2023-08-12T01:09:11;98642.22;;;18.84;82.13
29467;BME280;60968;37.490;-122.288;2023-08-12T01:12:24;98637.94;;;18.65;84.18
29467;BME280;60968;37.490;-122.288;2023-08-12T01:15:27;98624.72;;;18.49;85.30
29467;BME280;60968;37.490;-122.288;2023-08-12T01:18:28;98630.47;;;18.40;86.34
29467;BME280;60968;37.490;-122.288;2023-08-12T01:21:30;98632.09;;;18.25;86.81
29467;BME280;60968;37.490;-122.288;2023-08-12T01:24:51;98626.97;;;18.22;85.98
29467;BME280;60968;37.490;-122.288;2023-08-12T01:27:52;98633.63;;;18.29;85.28
29467;BME280;60968;37.490;-122.288;2023-08-12T01:31:11;98634.97;;;18.38;83.99
29467;BME280;60968;37.490;-122.288;2023-08-12T01:34:20;98639.59;;;18.50;82.80
29467;BME280;60968;37.490;-122.288;2023-08-12T01:37:29;98642.31;;;18.82;80.45
29467;BME280;60968;37.490;-122.288;2023-08-12T01:40:32;98650.69;;;18.91;80.38
29467;BME280;60968;37.490;-122.288;2023-08-12T01:43:34;98657.59;;;18.93;80.49
29467;BME280;60968;37.490;-122.288;2023-08-12T01:46:36;98656.41;;;18.99;79.74
29467;BME280;60968;37.490;-122.288;2023-08-12T01:49:36;98655.06;;;19.08;78.76
29467;BME280;60968;37.490;-122.288;2023-08-12T01:52:37;98654.13;;;19.09;78.78
29467;BME280;60968;37.490;-122.288;2023-08-12T01:55:38;98654.88;;;19.11;78.39
29467;BME280;60968;37.490;-122.288;2023-08-12T01:58:39;98657.88;;;19.05;79.57
29467;BME280;60968;37.490;-122.288;2023-08-12T02:01:40;98662.19;;;19.06;79.60
29467;BME280;60968;37.490;-122.288;2023-08-12T02:04:40;98660.25;;;18.76;81.35
29467;BME280;60968;37.490;-122.288;2023-08-12T02:07:41;98657.53;;;18.77;81.72
29467;BME280;60968;37.490;-122.288;2023-08-12T02:10:42;98657.91;;;18.87;81.45
29467;BME280;60968;37.490;-122.288;2023-08-12T02:13:43;98664.94;;;18.71;82.00
29467;BME280;60968;37.490;-122.288;2023-08-12T02:16:44;98663.22;;;18.69;82.82
29467;BME280;60968;37.490;-122.288;2023-08-12T02:19:45;98660.84;;;18.81;82.21
29467;BME280;60968;37.490;-122.288;2023-08-12T02:22:45;98666.19;;;18.97;81.54
29467;BME280;60968;37.490;-122.288;2023-08-12T02:25:47;98673.94;;;19.00;81.05
29467;BME280;60968;37.490;-122.288;2023-08-12T02:28:48;98671.28;;;19.00;81.89
29467;BME280;60968;37.490;-122.288;2023-08-12T02:31:48;98674.19;;;18.95;81.52
29467;BME280;60968;37.490;-122.288;2023-08-12T02:34:49;98668.25;;;18.92;81.62
29467;BME280;60968;37.490;-122.288;2023-08-12T02:37:50;98670.81;;;18.76;82.45
29467;BME280;60968;37.490;-122.288;2023-08-12T02:40:51;98674.25;;;18.60;83.46
29467;BME280;60968;37.490;-122.288;2023-08-12T02:43:52;98674.59;;;18.54;84.16
29467;BME280;60968;37.490;-122.288;2023-08-12T02:46:53;98676.84;;;18.44;85.22
29467;BME280;60968;37.490;-122.288;2023-08-12T02:49:53;98677.47;;;18.49;84.89
29467;BME280;60968;37.490;-122.288;2023-08-12T02:52:55;98682.25;;;18.59;84.64
29467;BME280;60968;37.490;-122.288;2023-08-12T02:55:56;98686.63;;;18.76;83.65
29467;BME280;60968;37.490;-122.288;2023-08-12T02:58:56;98681.59;;;18.89;82.53
29467;BME280;60968;37.490;-122.288;2023-08-12T03:01:57;98676.34;;;19.05;81.82
29467;BME280;60968;37.490;-122.288;2023-08-12T03:04:58;98676.88;;;19.11;81.17
29467;BME280;60968;37.490;-122.288;2023-08-12T03:07:59;98673.78;;;19.03;81.63
29467;BME280;60968;37.490;-122.288;2023-08-12T03:11:01;98678.03;;;18.90;82.26
29467;BME280;60968;37.490;-122.288;2023-08-12T03:14:02;98688.50;;;18.91;82.82
29467;BME280;60968;37.490;-122.288;2023-08-12T03:17:03;98690.47;;;18.88;83.19
29467;BME280;60968;37.490;-122.288;2023-08-12T03:20:06;98689.91;;;18.81;83.89
29467;BME280;60968;37.490;-122.288;2023-08-12T03:23:07;98699.28;;;18.86;83.55
29467;BME280;60968;37.490;-122.288;2023-08-12T03:26:07;98709.63;;;18.74;84.61
29467;BME280;60968;37.490;-122.288;2023-08-12T03:29:08;98705.16;;;18.58;86.22
29467;BME280;60968;37.490;-122.288;2023-08-12T03:32:09;98694.91;;;18.52;87.42
29467;BME280;60968;37.490;-122.288;2023-08-12T03:35:10;98697.44;;;18.54;87.03
29467;BME280;60968;37.490;-122.288;2023-08-12T03:38:11;98697.78;;;18.47;87.46
29467;BME280;60968;37.490;-122.288;2023-08-12T03:41:12;98696.31;;;18.42;87.45
29467;BME280;60968;37.490;-122.288;2023-08-12T03:44:13;98695.63;;;18.38;88.15
29467;BME280;60968;37.490;-122.288;2023-08-12T03:47:14;98704.69;;;18.15;90.12
29467;BME280;60968;37.490;-122.288;2023-08-12T03:50:15;98697.19;;;18.07;91.76
29467;BME280;60968;37.490;-122.288;2023-08-12T03:53:16;98694.00;;;18.00;92.13
29467;BME280;60968;37.490;-122.288;2023-08-12T03:56:17;98699.56;;;17.94;92.26
29467;BME280;60968;37.490;-122.288;2023-08-12T03:59:18;98698.63;;;17.95;92.73
29467;BME280;60968;37.490;-122.288;2023-08-12T04:02:18;98708.41;;;17.93;93.24
29467;BME280;60968;37.490;-122.288;2023-08-12T04:05:19;98723.06;;;17.99;92.64
29467;BME280;60968;37.490;-122.288;2023-08-12T04:08:23;98722.91;;;17.83;94.11
29467;BME280;60968;37.490;-122.288;2023-08-12T04:11:24;98724.63;;;17.84;94.33
29467;BME280;60968;37.490;-122.288;2023-08-12T04:14:25;98732.22;;;17.90;93.88
29467;BME280;60968;37.490;-122.288;2023-08-12T04:17:26;98735.31;;;17.81;94.30
29467;BME280;60968;37.490;-122.288;2023-08-12T04:20:27;98742.75;;;17.73;95.60
29467;BME280;60968;37.490;-122.288;2023-08-12T04:23:27;98749.41;;;17.80;95.20
29467;BME280;60968;37.490;-122.288;2023-08-12T04:26:28;98744.94;;;17.82;95.03
29467;BME280;60968;37.490;-122.288;2023-08-12T04:29:29;98748.66;;;17.78;95.09
29467;BME280;60968;37.490;-122.288;2023-08-12T04:32:32;98744.16;;;17.80;95.16
29467;BME280;60968;37.490;-122.288;2023-08-12T04:35:32;98738.69;;;17.65;96.74
29467;BME280;60968;37.490;-122.288;2023-08-12T04:38:33;98746.47;;;17.49;97.63
29467;BME280;60968;37.490;-122.288;2023-08-12T04:41:34;98743.44;;;17.38;98.79
29467;BME280;60968;37.490;-122.288;2023-08-12T04:44:35;98747.88;;;17.38;98.98
29467;BME280;60968;37.490;-122.288;2023-08-12T04:47:36;98751.31;;;17.40;98.45
29467;BME280;60968;37.490;-122.288;2023-08-12T04:50:37;98748.25;;;17.30;98.97
29467;BME280;60968;37.490;-122.288;2023-08-12T04:53:38;98745.28;;;17.17;100.00
29467;BME280;60968;37.490;-122.288;2023-08-12T04:56:39;98754.03;;;16.98;100.00
29467;BME280;60968;37.490;-122.288;2023-08-12T04:59:40;98767.28;;;16.75;100.00
29467;BME280;60968;37.490;-122.288;2023-08-12T05:02:41;98759.09;;;16.62;100.00
29467;BME280;60968;37.490;-122.288;2023-08-12T05:05:42;98764.22;;;16.44;100.00
29467;BME280;60968;37.490;-122.288;2023-08-12T05:08:42;98762.84;;;16.36;100.00
29467;BME280;60968;37.490;-122.288;2023-08-12T05:11:43;98768.41;;;16.28;100.00
29467;BME280;60968;37.490;-122.288;2023-08-12T05:14:44;98778.00;;;16.29;100.00
29467;BME280;60968;37.490;-122.288;2023-08-12T05:17:45;98779.59;;;16.33;100.00
29467;BME280;60968;37.490;-122.288;2023-08-12T05:20:46;98785.97;;;16.27;100.00
29467;BME280;60968;37.490;-122.288;2023-08-12T05:23:47;98791.44;;;16.21;100.00
29467;BME280;60968;37.490;-122.288;2023-08-12T05:26:48;98794.63;;;16.29;100.00
29467;BME280;60968;37.490;-122.288;2023-08-12T05:29:48;98794.28;;;16.17;100.00
29467;BME280;60968;37.490;-122.288;2023-08-12T05:32:49;98788.34;;;16.11;100.00
29467;BME280;60968;37.490;-122.288;2023-08-12T05:35:50;98789.94;;;16.16;100.00
29467;BME280;60968;37.490;-122.288;2023-08-12T05:38:51;98803.81;;;16.19;100.00
29467;BME280;60968;37.490;-122.288;2023-08-12T05:41:52;98805.41;;;16.23;100.00
29467;BME280;60968;37.490;-122.288;2023-08-12T05:44:53;98808.16;;;16.20;100.00
29467;BME280;60968;37.490;-122.288;2023-08-12T05:47:53;98810.53;;;16.26;100.00
29467;BME280;60968;37.490;-122.288;2023-08-12T05:50:54;98808.16;;;16.20;100.00
29467;BME280;60968;37.490;-122.288;2023-08-12T05:53:55;98822.63;;;16.31;100.00
29467;BME280;60968;37.490;-122.288;2023-08-12T05:56:56;98816.41;;;16.33;100.00
29467;BME280;60968;37.490;-122.288;2023-08-12T05:59:57;98816.56;;;16.28;100.00
29467;BME280;60968;37.490;-122.288;2023-08-12T06:02:59;98819.53;;;16.21;100.00
29467;BME280;60968;37.490;-122.288;2023-08-12T06:06:00;98829.00;;;16.25;100.00
29467;BME280;60968;37.490;-122.288;2023-08-12T06:09:00;98825.25;;;16.31;100.00
29467;BME280;60968;37.490;-122.288;2023-08-12T06:12:01;98826.09;;;16.31;100.00
29467;BME280;60968;37.490;-122.288;2023-08-12T06:15:02;98822.28;;;16.18;100.00
29467;BME280;60968;37.490;-122.288;2023-08-12T06:18:03;98823.25;;;16.15;100.00
29467;BME280;60968;37.490;-122.288;2023-08-12T06:21:04;98822.94;;;16.01;100.00
29467;BME280;60968;37.490;-122.288;2023-08-12T06:24:05;98826.31;;;15.82;100.00
29467;BME280;60968;37.490;-122.288;2023-08-12T06:27:06;98812.50;;;15.75;100.00
29467;BME280;60968;37.490;-122.288;2023-08-12T06:30:08;98825.13;;;15.66;100.00
29467;BME280;60968;37.490;-122.288;2023-08-12T06:33:09;98830.75;;;15.80;100.00
29467;BME280;60968;37.490;-122.288;2023-08-12T06:36:10;98823.28;;;15.91;100.00
29467;BME280;60968;37.490;-122.288;2023-08-12T06:39:11;98817.78;;;15.98;100.00
29467;BME280;60968;37.490;-122.288;2023-08-12T06:42:12;98822.50;;;16.11;100.00
29467;BME280;60968;37.490;-122.288;2023-08-12T06:45:13;98831.81;;;16.20;100.00
29467;BME280;60968;37.490;-122.288;2023-08-12T06:48:14;98829.78;;;16.27;100.00
29467;BME280;60968;37.490;-122.288;2023-08-12T06:51:14;98829.00;;;16.25;100.00
29467;BME280;60968;37.490;-122.288;2023-08-12T06:54:15;98825.69;;;16.20;100.00
29467;BME280;60968;37.490;-122.288;2023-08-12T06:57:16;98823.25;;;16.15;100.00
29467;BME280;60968;37.490;-122.288;2023-08-12T07:00:17;98821.78;;;16.08;100.00
29467;BME280;60968;37.490;-122.288;2023-08-12T07:03:18;98823.50;;;16.09;100.00
29467;BME280;60968;37.490;-122.288;2023-08-12T07:06:19;98818.91;;;16.14;100.00
29467;BME280;60968;37.490;-122.288;2023-08-12T07:09:20;98813.47;;;16.19;100.00
29467;BME280;60968;37.490;-122.288;2023-08-12T07:12:20;98813.59;;;16.16;100.00
29467;BME280;60968;37.490;-122.288;2023-08-12T07:15:21;98819.81;;;16.13;100.00
29467;BME280;60968;37.490;-122.288;2023-08-12T07:18:22;98826.91;;;16.11;100.00
29467;BME280;60968;37.490;-122.288;2023-08-12T07:21:23;98830.31;;;16.13;100.00
29467;BME280;60968;37.490;-122.288;2023-08-12T07:24:24;98826.06;;;16.10;100.00
29467;BME280;60968;37.490;-122.288;2023-08-12T07:27:25;98824.53;;;16.05;100.00
29467;BME280;60968;37.490;-122.288;2023-08-12T07:30:26;98831.56;;;16.04;100.00
29467;BME280;60968;37.490;-122.288;2023-08-12T07:33:27;98828.13;;;16.02;100.00
29467;BME280;60968;37.490;-122.288;2023-08-12T07:36:28;98822.94;;;16.01;100.00
29467;BME280;60968;37.490;-122.288;2023-08-12T07:39:28;98829.13;;;16.00;100.00
29467;BME280;60968;37.490;-122.288;2023-08-12T07:42:29;98828.22;;;16.01;100.00
29467;BME280;60968;37.490;-122.288;2023-08-12T07:45:30;98824.81;;;15.97;100.00
29467;BME280;60968;37.490;-122.288;2023-08-12T07:48:31;98819.34;;;16.03;100.00
29467;BME280;60968;37.490;-122.288;2023-08-12T07:51:32;98822.88;;;16.02;100.00
29467;BME280;60968;37.490;-122.288;2023-08-12T07:54:32;98820.31;;;16.01;100.00
29467;BME280;60968;37.490;-122.288;2023-08-12T07:57:33;98820.84;;;15.87;100.00
29467;BME280;60968;37.490;-122.288;2023-08-12T08:00:34;98813.59;;;15.93;100.00
29467;BME280;60968;37.490;-122.288;2023-08-12T08:03:35;98816.25;;;15.92;100.00
29467;BME280;60968;37.490;-122.288;2023-08-12T08:06:36;98819.25;;;15.83;100.00
29467;BME280;60968;37.490;-122.288;2023-08-12T08:09:37;98806.97;;;15.83;100.00
29467;BME280;60968;37.490;-122.288;2023-08-12T08:12:38;98803.44;;;15.84;100.00
29467;BME280;60968;37.490;-122.288;2023-08-12T08:15:39;98802.47;;;15.87;100.00
29467;BME280;60968;37.490;-122.288;2023-08-12T08:18:39;98790.19;;;15.87;100.00
29467;BME280;60968;37.490;-122.288;2023-08-12T08:21:40;98798.38;;;15.80;100.00
29467;BME280;60968;37.490;-122.288;2023-08-12T08:24:41;98794.78;;;15.82;100.00
29467;BME280;60968;37.490;-122.288;2023-08-12T08:27:43;98797.91;;;15.68;100.00
29467;BME280;60968;37.490;-122.288;2023-08-12T08:30:44;98793.50;;;15.69;100.00
29467;BME280;60968;37.490;-122.288;2023-08-12T08:33:45;98792.72;;;15.67;100.00
29467;BME280;60968;37.490;-122.288;2023-08-12T08:36:45;98790.09;;;15.67;100.00
29467;BME280;60968;37.490;-122.288;2023-08-12T08:39:46;98788.06;;;15.73;100.00
29467;BME280;60968;37.490;-122.288;2023-08-12T08:42:51;98785.88;;;15.63;100.00
29467;BME280;60968;37.490;-122.288;2023-08-12T08:45:53;98781.25;;;15.68;100.00
29467;BME280;60968;37.490;-122.288;2023-08-12T08:48:55;98781.25;;;15.68;100.00
29467;BME280;60968;37.490;-122.288;2023-08-12T08:51:59;98783.00;;;15.69;100.00
29467;BME280;60968;37.490;-122.288;2023-08-12T08:55:00;98773.81;;;15.57;100.00
29467;BME280;60968;37.490;-122.288;2023-08-12T08:58:02;98786.78;;;15.61;100.00
29467;BME280;60968;37.490;-122.288;2023-08-12T09:01:05;98780.44;;;15.67;100.00
29467;BME280;60968;37.490;-122.288;2023-08-12T09:04:07;98777.59;;;15.72;100.00
29467;BME280;60968;37.490;-122.288;2023-08-12T09:07:09;98766.97;;;15.75;100.00
29467;BME280;60968;37.490;-122.288;2023-08-12T09:10:11;98757.94;;;15.60;100.00
29467;BME280;60968;37.490;-122.288;2023-08-12T09:13:12;98751.88;;;15.58;100.00
29467;BME280;60968;37.490;-122.288;2023-08-12T09:16:14;98745.53;;;15.64;100.00
29467;BME280;60968;37.490;-122.288;2023-08-12T09:19:15;98743.03;;;15.60;100.00
29467;BME280;60968;37.490;-122.288;2023-08-12T09:22:16;98742.91;;;15.64;100.00
29467;BME280;60968;37.490;-122.288;2023-08-12T09:25:20;98747.94;;;15.70;100.00
29467;BME280;60968;37.490;-122.288;2023-08-12T09:28:21;98744.00;;;15.82;100.00
29467;BME280;60968;37.490;-122.288;2023-08-12T09:31:29;98743.69;;;15.89;100.00
29467;BME280;60968;37.490;-122.288;2023-08-12T09:34:32;98757.47;;;15.94;100.00
29467;BME280;60968;37.490;-122.288;2023-08-12T09:37:32;98756.91;;;15.88;100.00
29467;BME280;60968;37.490;-122.288;2023-08-12T09:40:35;98754.56;;;15.80;100.00
29467;BME280;60968;37.490;-122.288;2023-08-12T09:43:43;98759.75;;;15.82;100.00
29467;BME280;60968;37.490;-122.288;2023-08-12T09:46:44;98755.38;;;15.82;100.00
29467;BME280;60968;37.490;-122.288;2023-08-12T09:49:44;98745.97;;;15.75;100.00
29467;BME280;60968;37.490;-122.288;2023-08-12T09:52:45;98752.56;;;15.87;100.00
29467;BME280;60968;37.490;-122.288;2023-08-12T09:55:47;98754.31;;;15.86;100.00
29467;BME280;60968;37.490;-122.288;2023-08-12T09:58:49;98757.34;;;15.98;100.00
29467;BME280;60968;37.490;-122.288;2023-08-12T10:01:52;98754.63;;;16.01;100.00
29467;BME280;60968;37.490;-122.288;2023-08-12T10:04:54;98750.41;;;15.97;100.00
29467;BME280;60968;37.490;-122.288;2023-08-12T10:07:57;98751.03;;;16.03;100.00
29467;BME280;60968;37.490;-122.288;2023-08-12T10:10:58;98754.16;;;16.11;100.00
29467;BME280;60968;37.490;-122.288;2023-08-12T10:14:01;98753.06;;;16.17;100.00
29467;BME280;60968;37.490;-122.288;2023-08-12T10:17:03;98751.19;;;16.21;100.00
29467;BME280;60968;37.490;-122.288;2023-08-12T10:20:05;98746.13;;;16.16;100.00
29467;BME280;60968;37.490;-122.288;2023-08-12T10:23:07;98754.78;;;16.18;100.00
29467;BME280;60968;37.490;-122.288;2023-08-12T10:26:10;98755.75;;;16.16;100.00
29467;BME280;60968;37.490;-122.288;2023-08-12T10:29:11;98753.41;;;16.09;100.00
29467;BME280;60968;37.490;-122.288;2023-08-12T10:32:13;98755.41;;;16.03;100.00
29467;BME280;60968;37.490;-122.288;2023-08-12T10:35:14;98751.50;;;15.91;100.00
29467;BME280;60968;37.490;-122.288;2023-08-12T10:38:19;98754.91;;;15.93;100.00
29467;BME280;60968;37.490;-122.288;2023-08-12T10:41:22;98752.56;;;15.87;100.00
29467;BME280;60968;37.490;-122.288;2023-08-12T10:44:50;98748.00;;;15.90;100.00
29467;BME280;60968;37.490;-122.288;2023-08-12T10:48:20;98744.50;;;15.68;100.00
29467;BME280;60968;37.490;-122.288;2023-08-12T10:51:46;98740.84;;;15.72;100.00
29467;BME280;60968;37.490;-122.288;2023-08-12T10:54:47;98747.69;;;15.76;100.00
29467;BME280;60968;37.490;-122.288;2023-08-12T10:57:53;98743.75;;;15.88;100.00
29467;BME280;60968;37.490;-122.288;2023-08-12T11:00:56;98750.63;;;15.90;100.00
29467;BME280;60968;37.490;-122.288;2023-08-12T11:03:58;98750.56;;;15.92;100.00
29467;BME280;60968;37.490;-122.288;2023-08-12T11:06:58;98740.53;;;15.81;100.00
29467;BME280;60968;37.490;-122.288;2023-08-12T11:10:13;98738.22;;;15.72;100.00
29467;BME280;60968;37.490;-122.288;2023-08-12T11:13:14;98737.78;;;15.60;100.00
29467;BME280;60968;37.490;-122.288;2023-08-12T11:16:17;98743.72;;;15.66;100.00
29467;BME280;60968;37.490;-122.288;2023-08-12T11:19:20;98754.78;;;15.74;100.00
29467;BME280;60968;37.490;-122.288;2023-08-12T11:22:22;98753.25;;;15.68;100.00
29467;BME280;60968;37.490;-122.288;2023-08-12T11:25:24;98755.53;;;15.54;100.00
29467;BME280;60968;37.490;-122.288;2023-08-12T11:28:25;98763.66;;;15.48;100.00
29467;BME280;60968;37.490;-122.288;2023-08-12T11:31:29;98753.28;;;15.44;100.00
29467;BME280;60968;37.490;-122.288;2023-08-12T11:34:30;98756.81;;;15.43;100.00
29467;BME280;60968;37.490;-122.288;2023-08-12T11:37:31;98754.25;;;15.42;100.00
29467;BME280;60968;37.490;-122.288;2023-08-12T11:40:32;98761.31;;;15.40;100.00
29467;BME280;60968;37.490;-122.288;2023-08-12T11:43:33;98753.84;;;15.29;100.00
29467;BME280;60968;37.490;-122.288;2023-08-12T11:46:34;98761.09;;;15.22;100.00
29467;BME280;60968;37.490;-122.288;2023-08-12T11:49:34;98747.00;;;15.25;100.00
29467;BME280;60968;37.490;-122.288;2023-08-12T11:52:40;98746.56;;;15.14;100.00
29467;BME280;60968;37.490;-122.288;2023-08-12T11:55:41;98740.50;;;15.12;100.00
29467;BME280;60968;37.490;-122.288;2023-08-12T11:58:42;98738.22;;;15.02;100.00
29467;BME280;60968;37.490;-122.288;2023-08-12T12:01:46;98734.53;;;15.08;100.00
29467;BME280;60968;37.490;-122.288;2023-08-12T12:04:51;98731.19;;;15.03;100.00
29467;BME280;60968;37.490;-122.288;2023-08-12T12:07:52;98732.09;;;15.02;100.00
29467;BME280;60968;37.490;-122.288;2023-08-12T12:10:55;98732.22;;;14.99;100.00
29467;BME280;60968;37.490;-122.288;2023-08-12T12:13:55;98725.50;;;14.91;100.00
29467;BME280;60968;37.490;-122.288;2023-08-12T12:16:56;98737.28;;;15.03;100.00
29467;BME280;60968;37.490;-122.288;2023-08-12T12:19:58;98730.97;;;15.09;100.00
29467;BME280;60968;37.490;-122.288;2023-08-12T12:23:06;98728.06;;;15.17;100.00
29467;BME280;60968;37.490;-122.288;2023-08-12T12:26:07;98723.09;;;15.09;100.00
29467;BME280;60968;37.490;-122.288;2023-08-12T12:29:10;98731.66;;;15.14;100.00
29467;BME280;60968;37.490;-122.288;2023-08-12T12:32:11;98732.94;;;15.27;100.00
29467;BME280;60968;37.490;-122.288;2023-08-12T12:35:12;98722.56;;;15.23;100.00
29467;BME280;60968;37.490;-122.288;2023-08-12T12:38:13;98735.19;;;15.37;100.00
29467;BME280;60968;37.490;-122.288;2023-08-12T12:41:14;98737.41;;;15.48;100.00
29467;BME280;60968;37.490;-122.288;2023-08-12T12:44:15;98740.59;;;15.56;100.00
29467;BME280;60968;37.490;-122.288;2023-08-12T12:47:16;98736.81;;;15.63;100.00
29467;BME280;60968;37.490;-122.288;2023-08-12T12:50:17;98749.81;;;15.66;100.00
29467;BME280;60968;37.490;-122.288;2023-08-12T12:53:17;98747.81;;;15.73;100.00
29467;BME280;60968;37.490;-122.288;2023-08-12T12:56:18;98748.41;;;15.81;100.00
29467;BME280;60968;37.490;-122.288;2023-08-12T12:59:19;98750.56;;;15.92;100.00
29467;BME280;60968;37.490;-122.288;2023-08-12T13:02:20;98750.00;;;15.85;100.00
29467;BME280;60968;37.490;-122.288;2023-08-12T13:05:22;98756.28;;;15.81;100.00
29467;BME280;60968;37.490;-122.288;2023-08-12T13:08:24;98753.13;;;15.71;100.00
29467;BME280;60968;37.490;-122.288;2023-08-12T13:11:24;98756.66;;;15.70;100.00
29467;BME280;60968;37.490;-122.288;2023-08-12T13:14:25;98763.91;;;15.41;100.00
29467;BME280;60968;37.490;-122.288;2023-08-12T13:17:26;98761.88;;;15.24;100.00
29467;BME280;60968;37.490;-122.288;2023-08-12T13:20:27;98769.22;;;15.16;100.00
29467;BME280;60968;37.490;-122.288;2023-08-12T13:23:28;98768.41;;;15.14;100.00
29467;BME280;60968;37.490;-122.288;2023-08-12T13:26:29;98770.81;;;15.20;100.00
29467;BME280;60968;37.490;-122.288;2023-08-12T13:29:29;98784.41;;;15.32;100.00
29467;BME280;60968;37.490;-122.288;2023-08-12T13:32:30;98782.03;;;15.48;100.00
29467;BME280;60968;37.490;-122.288;2023-08-12T13:35:31;98779.22;;;15.52;100.00
29467;BME280;60968;37.490;-122.288;2023-08-12T13:38:32;98785.69;;;15.43;100.00
29467;BME280;60968;37.490;-122.288;2023-08-12T13:41:33;98788.78;;;15.31;100.00
29467;BME280;60968;37.490;-122.288;2023-08-12T13:44:34;98781.84;;;15.29;100.00
29467;BME280;60968;37.490;-122.288;2023-08-12T13:47:35;98787.81;;;15.34;100.00
29467;BME280;60968;37.490;-122.288;2023-08-12T13:50:36;98780.94;;;15.53;100.00
29467;BME280;60968;37.490;-122.288;2023-08-12T13:53:37;98788.72;;;15.56;100.00
29467;BME280;60968;37.490;-122.288;2023-08-12T13:56:38;98792.41;;;15.51;100.00
29467;BME280;60968;37.490;-122.288;2023-08-12T13:59:38;98790.31;;;15.60;100.00
29467;BME280;60968;37.490;-122.288;2023-08-12T14:02:40;98796.88;;;15.72;100.00
29467;BME280;60968;37.490;-122.288;2023-08-12T14:05:41;98796.25;;;15.66;100.00
29467;BME280;60968;37.490;-122.288;2023-08-12T14:08:42;98796.13;;;15.69;100.00
29467;BME280;60968;37.490;-122.288;2023-08-12T14:11:43;98796.25;;;15.66;100.00
29467;BME280;60968;37.490;-122.288;2023-08-12T14:14:43;98797.97;;;15.67;100.00
29467;BME280;60968;37.490;-122.288;2023-08-12T14:17:44;98803.81;;;15.73;100.00
29467;BME280;60968;37.490;-122.288;2023-08-12T14:20:45;98807.53;;;15.68;100.00
29467;BME280;60968;37.490;-122.288;2023-08-12T14:23:46;98804.34;;;15.83;100.00
29467;BME280;60968;37.490;-122.288;2023-08-12T14:26:47;98805.16;;;15.85;100.00
29467;BME280;60968;37.490;-122.288;2023-08-12T14:29:48;98805.88;;;15.89;100.00
29467;BME280;60968;37.490;-122.288;2023-08-12T14:32:48;98803.63;;;16.02;100.00
29467;BME280;60968;37.490;-122.288;2023-08-12T14:35:49;98807.06;;;16.04;100.00
29467;BME280;60968;37.490;-122.288;2023-08-12T14:38:50;98810.59;;;16.03;100.00
29467;BME280;60968;37.490;-122.288;2023-08-12T14:41:51;98810.66;;;16.01;100.00
29467;BME280;60968;37.490;-122.288;2023-08-12T14:44:52;98817.63;;;16.02;100.00
29467;BME280;60968;37.490;-122.288;2023-08-12T14:47:53;98823.16;;;15.94;100.00
29467;BME280;60968;37.490;-122.288;2023-08-12T14:50:55;98819.63;;;15.95;100.00
29467;BME280;60968;37.490;-122.288;2023-08-12T14:53:56;98822.06;;;16.00;100.00
29467;BME280;60968;37.490;-122.288;2023-08-12T14:56:56;98822.28;;;16.18;100.00
29467;BME280;60968;37.490;-122.288;2023-08-12T14:59:57;98825.94;;;16.36;100.00
29467;BME280;60968;37.490;-122.288;2023-08-12T15:02:58;98833.44;;;16.45;100.00
29467;BME280;60968;37.490;-122.288;2023-08-12T15:06:00;98829.53;;;16.55;100.00
29467;BME280;60968;37.490;-122.288;2023-08-12T15:09:01;98839.16;;;16.55;100.00
29467;BME280;60968;37.490;-122.288;2023-08-12T15:12:02;98832.44;;;16.70;100.00
29467;BME280;60968;37.490;-122.288;2023-08-12T15:15:03;98842.91;;;16.49;100.00
29467;BME280;60968;37.490;-122.288;2023-08-12T15:18:04;98834.59;;;16.60;100.00